createdAt,value
2023-06-30T00:01:41.136Z,2.73
2023-06-30T00:04:08.890Z,2.70
2023-06-30T00:06:35.978Z,2.70
2023-06-30T00:09:07.033Z,2.73
2023-06-30T00:11:34.098Z,2.90
2023-06-30T00:14:01.560Z,2.67
2023-06-30T00:16:28.618Z,2.70
2023-06-30T00:18:57.044Z,2.90
2023-06-30T00:21:24.526Z,3.03
2023-06-30T00:23:52.096Z,3.47
2023-06-30T00:26:19.646Z,3.33
2023-06-30T00:28:46.707Z,3.33
2023-06-30T00:31:14.280Z,3.37
2023-06-30T00:33:41.815Z,3.20
2023-06-30T00:36:09.823Z,3.43
2023-06-30T00:38:36.993Z,3.50
2023-06-30T00:41:04.947Z,3.10
2023-06-30T00:43:33.759Z,3.07
2023-06-30T00:46:01.327Z,2.80
2023-06-30T00:48:28.509Z,2.80
2023-06-30T00:50:56.185Z,2.80
2023-06-30T00:53:24.989Z,2.90
2023-06-30T00:55:52.537Z,2.77
2023-06-30T00:58:20.172Z,2.90
2023-06-30T01:00:47.846Z,2.80
2023-06-30T01:03:46.009Z,2.90
2023-06-30T01:06:31.864Z,2.73
2023-06-30T01:09:25.193Z,2.63
2023-06-30T01:11:53.290Z,2.80
2023-06-30T01:14:22.207Z,2.67
2023-06-30T01:16:51.425Z,2.73
2023-06-30T01:19:35.891Z,2.60
2023-06-30T01:22:59.285Z,2.70
2023-06-30T01:25:30.918Z,2.77
2023-06-30T01:28:00.931Z,2.60
2023-06-30T01:30:30.829Z,2.80
2023-06-30T01:33:01.068Z,2.97
2023-06-30T01:35:29.656Z,2.70
2023-06-30T01:37:57.517Z,2.83
2023-06-30T01:40:27.042Z,2.97
2023-06-30T01:42:57.180Z,2.70
2023-06-30T01:45:28.035Z,2.90
2023-06-30T01:47:56.418Z,2.97
2023-06-30T01:50:24.600Z,2.80
2023-06-30T01:52:52.117Z,3.10
2023-06-30T01:55:19.646Z,3.10
2023-06-30T01:57:46.805Z,2.97
2023-06-30T02:00:15.719Z,3.03
2023-06-30T02:02:43.163Z,2.77
2023-06-30T02:05:13.208Z,3.03
2023-06-30T02:07:40.885Z,2.87
2023-06-30T02:10:09.597Z,2.83
2023-06-30T02:12:37.218Z,2.90
2023-06-30T02:15:06.060Z,3.00
2023-06-30T02:17:34.426Z,3.07
2023-06-30T02:20:11.027Z,3.10
2023-06-30T02:22:39.806Z,3.17
2023-06-30T02:25:08.408Z,3.00
2023-06-30T02:27:35.528Z,3.03
2023-06-30T02:30:06.499Z,3.03
2023-06-30T02:32:39.251Z,3.20
2023-06-30T02:35:10.394Z,3.40
2023-06-30T02:37:38.482Z,3.60
2023-06-30T02:40:07.185Z,3.37
2023-06-30T02:42:34.320Z,3.30
2023-06-30T02:45:01.653Z,3.40
2023-06-30T02:47:28.850Z,3.80
2023-06-30T02:49:56.647Z,3.57
2023-06-30T02:52:23.900Z,3.37
2023-06-30T02:54:52.583Z,3.47
2023-06-30T02:57:22.616Z,3.73
2023-06-30T02:59:50.322Z,3.40
2023-06-30T03:02:17.529Z,3.43
2023-06-30T03:04:45.738Z,3.20
2023-06-30T03:07:13.322Z,3.20
2023-06-30T03:09:44.332Z,2.97
2023-06-30T03:12:12.765Z,2.87
2023-06-30T03:14:40.682Z,2.80
2023-06-30T03:17:08.372Z,2.70
2023-06-30T03:19:37.545Z,2.97
2023-06-30T03:22:05.434Z,2.87
2023-06-30T03:24:33.182Z,2.83
2023-06-30T03:27:01.479Z,3.10
2023-06-30T03:29:29.086Z,3.00
2023-06-30T03:31:57.990Z,3.00
2023-06-30T03:34:25.085Z,2.90
2023-06-30T03:36:52.591Z,2.87
2023-06-30T03:39:21.392Z,3.10
2023-06-30T03:41:48.916Z,3.07
2023-06-30T03:44:16.603Z,3.00
2023-06-30T03:46:44.147Z,3.10
2023-06-30T03:49:11.684Z,2.90
2023-06-30T03:51:42.680Z,3.13
2023-06-30T03:54:10.331Z,3.17
2023-06-30T03:56:38.072Z,2.93
2023-06-30T03:59:06.306Z,2.87
2023-06-30T04:01:35.143Z,3.40
2023-06-30T04:04:03.294Z,3.33
2023-06-30T04:06:33.991Z,3.07
2023-06-30T04:09:01.905Z,3.43
2023-06-30T04:11:28.919Z,3.33
2023-06-30T04:13:58.395Z,3.40
2023-06-30T04:16:26.079Z,3.47
2023-06-30T04:18:56.691Z,3.53
2023-06-30T04:21:24.375Z,3.40
2023-06-30T04:23:51.832Z,3.50
2023-06-30T04:26:19.432Z,3.73
2023-06-30T04:28:47.081Z,3.40
2023-06-30T04:31:14.752Z,3.50
2023-06-30T04:33:42.374Z,3.83
2023-06-30T04:36:09.620Z,3.57
2023-06-30T04:38:37.111Z,3.83
2023-06-30T04:41:04.330Z,3.93
2023-06-30T04:43:31.917Z,4.10
2023-06-30T04:45:59.562Z,4.03
2023-06-30T04:48:27.126Z,4.57
2023-06-30T04:50:54.245Z,4.47
2023-06-30T04:53:21.768Z,4.80
2023-06-30T04:55:50.382Z,5.13
2023-06-30T04:58:19.036Z,4.30
2023-06-30T05:00:46.758Z,4.33
2023-06-30T05:03:13.915Z,4.20
2023-06-30T05:05:41.407Z,4.70
2023-06-30T05:08:08.554Z,4.53
2023-06-30T05:10:36.123Z,5.00
2023-06-30T05:13:03.654Z,4.73
2023-06-30T05:15:32.359Z,4.93
2023-06-30T05:17:59.444Z,4.50
2023-06-30T05:20:26.936Z,4.67
2023-06-30T05:22:54.499Z,4.60
2023-06-30T05:25:22.022Z,4.20
2023-06-30T05:27:49.565Z,4.50
2023-06-30T05:30:17.070Z,4.37
2023-06-30T05:32:44.636Z,4.30
2023-06-30T05:35:11.840Z,4.60
2023-06-30T05:37:39.438Z,4.57
2023-06-30T05:40:07.332Z,4.77
2023-06-30T05:42:34.799Z,4.20
2023-06-30T05:45:02.254Z,4.50
2023-06-30T05:47:29.391Z,4.87
2023-06-30T05:49:56.645Z,5.33
2023-06-30T05:52:26.055Z,7.47
2023-06-30T05:54:53.637Z,8.20
2023-06-30T05:57:21.184Z,8.30
2023-06-30T05:59:48.379Z,8.40
2023-06-30T06:02:15.593Z,7.63
2023-06-30T06:04:43.233Z,6.20
2023-06-30T06:07:10.673Z,4.10
2023-06-30T06:09:38.941Z,2.70
2023-06-30T06:12:07.017Z,2.20
2023-06-30T06:14:34.172Z,2.30
2023-06-30T06:17:02.669Z,2.27
2023-06-30T06:19:30.252Z,2.20
2023-06-30T06:21:57.307Z,2.20
2023-06-30T06:24:24.299Z,2.17
2023-06-30T06:26:52.379Z,2.23
2023-06-30T06:29:22.916Z,2.30
2023-06-30T06:31:52.185Z,2.37
2023-06-30T06:34:20.229Z,2.20
2023-06-30T06:36:48.131Z,2.20
2023-06-30T06:39:16.246Z,2.17
2023-06-30T06:41:46.121Z,2.20
2023-06-30T06:44:17.670Z,2.17
2023-06-30T06:46:45.512Z,2.00
2023-06-30T06:49:13.015Z,2.10
2023-06-30T06:51:40.815Z,2.03
2023-06-30T06:54:07.905Z,2.33
2023-06-30T06:56:35.403Z,2.87
2023-06-30T06:59:02.546Z,3.47
2023-06-30T07:01:31.345Z,3.47
2023-06-30T07:03:58.991Z,3.90
2023-06-30T07:06:26.137Z,3.50
2023-06-30T07:08:53.624Z,3.47
2023-06-30T07:11:20.632Z,3.20
2023-06-30T07:13:47.674Z,3.80
2023-06-30T07:16:18.815Z,3.83
2023-06-30T07:18:46.427Z,3.90
2023-06-30T07:21:14.653Z,3.90
2023-06-30T07:23:42.541Z,3.40
2023-06-30T07:26:10.713Z,3.40
2023-06-30T07:28:38.910Z,3.30
2023-06-30T07:31:06.515Z,2.87
2023-06-30T07:33:34.687Z,3.00
2023-06-30T07:36:02.156Z,2.80
2023-06-30T07:38:29.233Z,2.60
2023-06-30T07:40:57.623Z,2.63
2023-06-30T07:43:26.138Z,3.00
2023-06-30T07:45:53.808Z,2.67
2023-06-30T07:48:21.761Z,2.87
2023-06-30T07:50:59.576Z,2.70
2023-06-30T07:53:36.263Z,2.67
2023-06-30T07:56:08.370Z,2.90
2023-06-30T07:58:39.456Z,2.67
2023-06-30T08:04:01.181Z,2.40
2023-06-30T08:06:28.871Z,3.03
2023-06-30T08:08:56.807Z,3.67
2023-06-30T08:11:25.891Z,3.40
2023-06-30T08:13:53.598Z,4.23
2023-06-30T08:16:20.760Z,5.10
2023-06-30T08:18:51.356Z,4.20
2023-06-30T08:21:20.546Z,8.17
2023-06-30T08:23:48.095Z,9.00
2023-06-30T08:26:16.819Z,5.13
2023-06-30T08:28:44.956Z,2.23
2023-06-30T08:31:14.243Z,3.63
2023-06-30T08:33:41.544Z,4.10
2023-06-30T08:36:10.283Z,5.10
2023-06-30T08:38:38.396Z,5.50
2023-06-30T08:41:06.889Z,6.17
2023-06-30T08:43:34.469Z,6.93
2023-06-30T08:46:05.371Z,2.30
2023-06-30T08:48:33.814Z,1.40
2023-06-30T08:51:01.857Z,1.30
2023-06-30T08:53:31.310Z,2.07
2023-06-30T08:56:02.129Z,5.13
2023-06-30T08:58:35.056Z,10.17
2023-06-30T09:01:06.222Z,8.60
2023-06-30T09:03:41.098Z,5.87
2023-06-30T09:06:14.821Z,10.10
2023-06-30T09:09:05.250Z,8.50
2023-06-30T09:11:35.446Z,5.03
2023-06-30T09:14:05.361Z,4.00
2023-06-30T09:16:33.157Z,2.97
2023-06-30T09:19:00.811Z,2.97
2023-06-30T09:21:28.418Z,3.10
2023-06-30T09:23:57.704Z,3.80
2023-06-30T09:26:25.319Z,2.80
2023-06-30T09:28:55.928Z,2.50
2023-06-30T09:31:32.119Z,3.63
2023-06-30T09:34:15.439Z,4.57
2023-06-30T09:36:54.101Z,5.83
2023-06-30T09:39:24.612Z,4.70
2023-06-30T09:41:52.489Z,4.67
2023-06-30T09:44:23.824Z,3.77
2023-06-30T09:46:56.573Z,3.20
2023-06-30T09:49:34.259Z,4.50
2023-06-30T09:52:06.908Z,5.47
2023-06-30T09:54:44.390Z,6.80
2023-06-30T09:57:12.762Z,9.20
2023-06-30T09:59:49.453Z,7.73
2023-06-30T10:02:17.389Z,4.00
2023-06-30T10:04:44.933Z,3.87
2023-06-30T10:07:16.112Z,4.47
2023-06-30T10:09:47.628Z,5.30
2023-06-30T10:12:19.915Z,5.03
2023-06-30T10:14:49.547Z,4.30
2023-06-30T10:17:17.103Z,3.00
2023-06-30T10:19:45.123Z,2.73
2023-06-30T10:22:13.125Z,3.77
2023-06-30T10:24:44.570Z,6.90
2023-06-30T10:27:15.438Z,7.90
2023-06-30T10:29:43.126Z,6.53
2023-06-30T10:32:10.201Z,4.73
2023-06-30T10:34:38.147Z,2.70
2023-06-30T10:37:05.803Z,2.60
2023-06-30T10:39:33.774Z,2.40
2023-06-30T10:42:01.271Z,2.37
2023-06-30T10:44:46.638Z,3.10
2023-06-30T10:47:15.254Z,3.03
2023-06-30T10:49:43.740Z,2.87
2023-06-30T10:52:25.362Z,2.47
2023-06-30T10:54:53.641Z,2.60
2023-06-30T10:57:22.506Z,3.70
2023-06-30T11:00:13.228Z,4.83
2023-06-30T11:03:00.586Z,3.97
2023-06-30T11:05:36.184Z,4.07
2023-06-30T11:08:07.794Z,3.07
2023-06-30T11:10:36.339Z,2.83
2023-06-30T11:13:10.088Z,2.50
2023-06-30T11:15:51.627Z,2.40
2023-06-30T11:18:25.321Z,2.40
2023-06-30T11:21:07.014Z,2.30
2023-06-30T11:23:40.343Z,2.30
2023-06-30T11:26:19.842Z,2.20
2023-06-30T11:28:49.469Z,2.30
2023-06-30T11:31:18.562Z,2.30
2023-06-30T11:33:47.298Z,2.40
2023-06-30T11:36:19.768Z,2.53
2023-06-30T11:38:52.113Z,3.20
2023-06-30T11:41:22.188Z,2.80
2023-06-30T11:43:59.195Z,2.60
2023-06-30T11:46:28.717Z,2.70
2023-06-30T11:48:57.424Z,2.90
2023-06-30T11:51:25.120Z,3.77
2023-06-30T11:53:52.862Z,4.30
2023-06-30T11:56:21.177Z,3.90
2023-06-30T11:58:54.383Z,4.77
2023-06-30T12:01:21.966Z,4.40
2023-06-30T12:04:00.897Z,4.60
2023-06-30T12:06:29.363Z,3.80
2023-06-30T12:08:58.291Z,4.00
2023-06-30T12:11:25.846Z,4.90
2023-06-30T12:13:53.510Z,5.10
2023-06-30T12:16:21.191Z,4.90
2023-06-30T12:18:48.933Z,5.27
2023-06-30T12:21:16.490Z,5.40
2023-06-30T12:23:45.757Z,5.47
2023-06-30T12:26:14.277Z,5.60
2023-06-30T12:28:43.301Z,7.27
2023-06-30T12:31:11.264Z,6.93
2023-06-30T12:33:38.813Z,6.60
2023-06-30T12:36:07.427Z,7.50
2023-06-30T12:38:37.870Z,6.93
2023-06-30T12:41:05.408Z,6.97
2023-06-30T12:43:34.481Z,7.40
2023-06-30T12:46:02.392Z,6.20
2023-06-30T12:48:29.978Z,5.87
2023-06-30T12:50:58.931Z,5.47
2023-06-30T12:53:26.450Z,5.83
2023-06-30T12:55:54.012Z,5.47
2023-06-30T12:58:21.034Z,6.23
2023-06-30T13:00:48.510Z,7.37
2023-06-30T13:03:16.282Z,8.40
2023-06-30T13:05:43.782Z,7.97
2023-06-30T13:08:10.836Z,9.77
2023-06-30T13:10:38.350Z,11.93
2023-06-30T13:13:05.982Z,10.57
2023-06-30T13:15:33.451Z,10.97
2023-06-30T13:18:01.014Z,11.43
2023-06-30T13:20:28.606Z,12.10
2023-06-30T13:23:08.483Z,11.20
2023-06-30T13:25:37.659Z,11.80
2023-06-30T13:28:05.259Z,8.50
2023-06-30T13:30:32.904Z,6.67
2023-06-30T13:33:00.508Z,4.50
2023-06-30T13:35:27.689Z,3.57
2023-06-30T13:37:55.234Z,3.30
2023-06-30T13:40:24.234Z,3.20
2023-06-30T13:42:51.508Z,2.90
2023-06-30T13:45:21.059Z,3.17
2023-06-30T13:47:48.637Z,3.00
2023-06-30T13:50:16.925Z,2.83
2023-06-30T13:52:44.566Z,2.27
2023-06-30T13:55:12.029Z,2.30
2023-06-30T13:57:39.574Z,2.40
2023-06-30T14:00:07.817Z,1.90
2023-06-30T14:02:35.340Z,2.27
2023-06-30T14:05:03.252Z,2.00
2023-06-30T14:07:31.194Z,2.20
2023-06-30T14:09:59.319Z,2.80
2023-06-30T14:12:26.991Z,3.10
2023-06-30T14:14:54.507Z,4.10
2023-06-30T14:17:21.639Z,4.30
2023-06-30T14:19:51.098Z,3.47
2023-06-30T14:22:19.591Z,3.50
2023-06-30T14:24:47.903Z,3.23
2023-06-30T14:27:15.455Z,3.20
2023-06-30T14:29:43.544Z,3.27
2023-06-30T14:32:11.177Z,3.77
2023-06-30T14:34:39.490Z,2.80
2023-06-30T14:37:07.294Z,2.70
2023-06-30T14:39:34.831Z,2.30
2023-06-30T14:42:03.074Z,2.33
2023-06-30T14:44:30.724Z,2.20
2023-06-30T14:46:59.719Z,2.30
2023-06-30T14:49:27.469Z,2.00
2023-06-30T14:51:54.574Z,2.50
2023-06-30T14:54:22.190Z,2.00
2023-06-30T14:56:49.820Z,2.03
2023-06-30T14:59:16.982Z,2.30
2023-06-30T15:01:44.450Z,2.57
2023-06-30T15:04:12.174Z,4.20
2023-06-30T15:06:39.799Z,3.10
2023-06-30T15:09:07.458Z,3.47
2023-06-30T15:11:35.210Z,3.40
2023-06-30T15:14:02.916Z,3.77
2023-06-30T15:16:30.577Z,6.90
2023-06-30T15:18:58.247Z,7.63
2023-06-30T15:21:25.813Z,8.20
2023-06-30T15:23:53.338Z,7.87
2023-06-30T15:26:20.862Z,4.80
2023-06-30T15:28:48.333Z,6.00
2023-06-30T15:31:15.902Z,5.37
2023-06-30T15:33:44.031Z,4.13
2023-06-30T15:36:11.712Z,5.87
2023-06-30T15:38:39.255Z,6.00
2023-06-30T15:41:21.782Z,4.30
2023-06-30T15:43:50.940Z,3.23
2023-06-30T15:46:19.336Z,2.83
2023-06-30T15:48:46.931Z,2.83
2023-06-30T15:51:14.478Z,3.60
2023-06-30T15:53:41.673Z,4.40
2023-06-30T15:56:09.216Z,4.53
2023-06-30T15:58:36.913Z,4.97
2023-06-30T16:01:04.505Z,4.97
2023-06-30T16:03:32.204Z,4.60
2023-06-30T16:05:59.920Z,4.30
2023-06-30T16:08:27.513Z,4.40
2023-06-30T16:10:55.196Z,3.97
2023-06-30T16:13:22.836Z,4.60
2023-06-30T16:15:52.607Z,4.23
2023-06-30T16:18:20.430Z,4.37
2023-06-30T16:20:48.031Z,4.23
2023-06-30T16:23:15.540Z,4.00
2023-06-30T16:25:42.746Z,3.73
2023-06-30T16:28:10.221Z,3.30
2023-06-30T16:30:38.181Z,2.97
2023-06-30T16:33:05.775Z,3.07
2023-06-30T16:35:34.202Z,2.87
2023-06-30T16:38:02.257Z,2.80
2023-06-30T16:40:30.237Z,2.80
2023-06-30T16:42:57.612Z,2.60
2023-06-30T16:45:25.180Z,2.63
2023-06-30T16:47:52.926Z,2.43
2023-06-30T16:50:20.645Z,2.60
2023-06-30T16:52:49.879Z,2.30
2023-06-30T16:55:17.375Z,2.27
2023-06-30T16:57:44.896Z,2.30
2023-06-30T17:00:12.978Z,2.33
2023-06-30T17:02:40.123Z,2.40
2023-06-30T17:05:08.393Z,2.60
2023-06-30T17:07:35.968Z,2.40
2023-06-30T17:10:05.564Z,2.67
2023-06-30T17:12:33.283Z,2.57
2023-06-30T17:15:00.322Z,2.70
2023-06-30T17:17:27.928Z,3.00
2023-06-30T17:19:55.525Z,2.83
2023-06-30T17:22:23.086Z,2.90
2023-06-30T17:24:50.766Z,2.87
2023-06-30T17:27:18.388Z,2.90
2023-06-30T17:29:46.359Z,2.90
2023-06-30T17:32:13.865Z,3.10
2023-06-30T17:34:41.473Z,3.10
2023-06-30T17:37:09.537Z,3.20
2023-06-30T17:39:37.371Z,2.97
2023-06-30T17:42:05.186Z,3.17
2023-06-30T17:44:32.613Z,3.30
2023-06-30T17:47:01.165Z,3.20
2023-06-30T17:49:31.351Z,3.40
2023-06-30T17:52:00.301Z,3.30
2023-06-30T17:54:29.606Z,3.47
2023-06-30T17:56:57.199Z,3.33
2023-06-30T17:59:26.863Z,3.57
2023-06-30T18:01:54.403Z,3.40
2023-06-30T18:04:22.066Z,3.50
2023-06-30T18:07:19.469Z,3.30
2023-06-30T18:09:47.486Z,3.33
2023-06-30T18:12:15.329Z,3.60
2023-06-30T18:14:43.766Z,3.80
2023-06-30T18:17:11.776Z,3.83
2023-06-30T18:19:41.510Z,3.90
2023-06-30T18:22:10.246Z,3.77
2023-06-30T18:24:38.348Z,4.00
2023-06-30T18:27:06.529Z,4.00
2023-06-30T18:29:34.780Z,4.00
2023-06-30T18:32:01.860Z,4.00
2023-06-30T18:34:29.479Z,3.67
2023-06-30T18:36:56.617Z,3.70
2023-06-30T18:39:24.187Z,3.97
2023-06-30T18:41:51.776Z,3.80
2023-06-30T18:44:19.020Z,3.63
2023-06-30T18:46:48.241Z,4.00
2023-06-30T18:49:15.351Z,4.00
2023-06-30T18:51:43.786Z,4.00
2023-06-30T18:54:11.473Z,4.10
2023-06-30T18:56:38.806Z,3.73
2023-06-30T18:59:06.427Z,3.77
2023-06-30T19:01:34.963Z,3.53
2023-06-30T19:04:02.873Z,3.27
2023-06-30T19:06:30.689Z,3.30
2023-06-30T19:08:58.309Z,3.17
2023-06-30T19:11:25.872Z,3.37
2023-06-30T19:13:53.488Z,3.40
2023-06-30T19:16:21.616Z,3.77
2023-06-30T19:18:49.273Z,4.20
2023-06-30T19:21:17.597Z,4.90
2023-06-30T19:23:45.349Z,4.63
2023-06-30T19:26:13.404Z,5.13
2023-06-30T19:28:41.724Z,5.67
2023-06-30T19:31:09.748Z,5.93
2023-06-30T19:33:37.720Z,7.90
2023-06-30T19:36:05.810Z,8.00
2023-06-30T19:38:33.890Z,7.63
2023-06-30T19:41:01.456Z,7.50
2023-06-30T19:43:28.583Z,7.60
2023-06-30T19:45:55.779Z,8.00
2023-06-30T19:48:23.908Z,7.23
2023-06-30T19:50:51.580Z,6.77
2023-06-30T19:53:19.404Z,6.53
2023-06-30T19:55:47.256Z,6.20
2023-06-30T19:58:16.384Z,5.60
2023-06-30T20:00:43.470Z,4.90
2023-06-30T20:03:11.293Z,4.70
2023-06-30T20:05:38.952Z,4.17
2023-06-30T20:08:06.565Z,3.70
2023-06-30T20:10:33.830Z,3.40
2023-06-30T20:13:02.150Z,3.20
2023-06-30T20:15:29.878Z,3.20
2023-06-30T20:17:57.442Z,3.20
2023-06-30T20:20:24.992Z,3.03
2023-06-30T20:22:52.618Z,2.93
2023-06-30T20:25:19.864Z,3.13
2023-06-30T20:27:47.502Z,3.20
2023-06-30T20:30:15.701Z,3.17
2023-06-30T20:32:43.306Z,3.00
2023-06-30T20:35:10.533Z,3.00
2023-06-30T20:37:38.176Z,3.03
2023-06-30T20:40:07.127Z,3.00
2023-06-30T20:42:34.620Z,3.33
2023-06-30T20:45:03.330Z,3.03
2023-06-30T20:47:30.954Z,3.33
2023-06-30T20:49:58.105Z,3.20
2023-06-30T20:52:26.173Z,3.10
2023-06-30T20:54:53.649Z,3.27
2023-06-30T20:57:20.734Z,3.30
2023-06-30T21:00:03.339Z,3.37
2023-06-30T21:02:31.354Z,3.43
2023-06-30T21:04:59.215Z,3.63
2023-06-30T21:07:27.114Z,3.63
2023-06-30T21:09:54.578Z,3.60
2023-06-30T21:12:22.084Z,3.83
2023-06-30T21:14:49.119Z,3.60
2023-06-30T21:17:16.640Z,3.60
2023-06-30T21:19:44.160Z,3.53
2023-06-30T21:22:11.660Z,3.53
2023-06-30T21:24:39.161Z,3.20
2023-06-30T21:27:06.854Z,3.10
2023-06-30T21:29:34.278Z,3.50
2023-06-30T21:32:01.884Z,3.27
2023-06-30T21:34:29.388Z,3.27
2023-06-30T21:36:56.470Z,3.13
2023-06-30T21:39:23.714Z,3.10
2023-06-30T21:41:51.331Z,3.00
2023-06-30T21:44:18.580Z,3.00
2023-06-30T21:46:46.414Z,3.00
2023-06-30T21:49:13.853Z,2.97
2023-06-30T21:51:40.938Z,2.80
2023-06-30T21:54:08.417Z,2.80
2023-06-30T21:56:35.913Z,2.87
2023-06-30T21:59:03.144Z,2.90
2023-06-30T22:01:39.976Z,2.67
2023-06-30T22:04:09.377Z,2.70
2023-06-30T22:06:37.287Z,2.90
2023-06-30T22:09:15.228Z,2.97
2023-06-30T22:11:44.226Z,2.87
2023-06-30T22:14:13.263Z,2.83
2023-06-30T22:16:41.231Z,2.93
2023-06-30T22:19:08.835Z,2.97
2023-06-30T22:21:36.393Z,3.07
2023-06-30T22:24:04.851Z,2.83
2023-06-30T22:26:32.479Z,2.93
2023-06-30T22:28:59.478Z,3.00
2023-06-30T22:31:27.094Z,2.90
2023-06-30T22:33:54.140Z,3.20
2023-06-30T22:36:21.609Z,3.00
2023-06-30T22:38:50.079Z,2.97
2023-06-30T22:41:17.180Z,2.90
2023-06-30T22:43:44.701Z,2.97
2023-06-30T22:46:12.171Z,3.07
2023-06-30T22:48:39.602Z,3.00
2023-06-30T22:51:07.262Z,3.10
2023-06-30T22:53:34.741Z,2.90
2023-06-30T22:56:03.537Z,3.00
2023-06-30T22:58:31.085Z,2.90
2023-06-30T23:00:58.602Z,2.90
2023-06-30T23:03:26.269Z,3.03
2023-06-30T23:05:53.892Z,3.07
2023-06-30T23:08:21.411Z,3.00
2023-06-30T23:10:49.038Z,2.93
2023-06-30T23:13:16.573Z,2.90
2023-06-30T23:15:43.593Z,2.93
2023-06-30T23:18:14.799Z,2.90
2023-06-30T23:20:42.668Z,2.90
2023-06-30T23:23:10.213Z,3.00
2023-06-30T23:25:38.428Z,2.90
2023-06-30T23:28:05.960Z,3.00
2023-06-30T23:30:35.279Z,3.03
2023-06-30T23:35:32.142Z,2.90
2023-06-30T23:37:59.566Z,3.03
2023-06-30T23:40:27.495Z,3.03
2023-06-30T23:42:54.929Z,2.93
2023-06-30T23:45:22.986Z,3.00
2023-06-30T23:47:50.556Z,3.07
2023-06-30T23:50:18.236Z,3.10
2023-06-30T23:52:45.239Z,2.97
2023-06-30T23:55:12.935Z,2.90
2023-06-30T23:57:40.072Z,3.03
